createdAt,value
2018-09-23T00:01:16.642Z,8.70
2018-09-23T00:03:44.053Z,8.70
2018-09-23T00:06:11.427Z,8.70
2018-09-23T00:08:38.894Z,8.70
2018-09-23T00:11:06.288Z,8.70
2018-09-23T00:13:33.663Z,8.70
2018-09-23T00:16:01.127Z,8.70
2018-09-23T00:18:28.528Z,8.60
2018-09-23T00:20:55.937Z,8.70
2018-09-23T00:23:23.361Z,8.50
2018-09-23T00:25:50.764Z,8.50
2018-09-23T00:28:18.208Z,8.50
2018-09-23T00:30:45.678Z,8.50
2018-09-23T00:33:13.085Z,8.50
2018-09-23T00:35:40.521Z,8.50
2018-09-23T00:38:07.952Z,8.50
2018-09-23T00:40:35.365Z,8.50
2018-09-23T00:43:02.801Z,8.50
2018-09-23T00:45:30.213Z,8.40
2018-09-23T00:47:57.589Z,8.40
2018-09-23T00:50:25.041Z,8.40
2018-09-23T00:52:52.423Z,8.30
2018-09-23T00:55:19.877Z,8.20
2018-09-23T00:57:47.292Z,8.20
2018-09-23T01:00:14.703Z,8.10
2018-09-23T01:02:42.096Z,8.10
2018-09-23T01:05:09.598Z,8.10
2018-09-23T01:07:36.993Z,8.20
2018-09-23T01:10:04.688Z,8.20
2018-09-23T01:12:32.107Z,8.20
2018-09-23T01:14:59.495Z,8.20
2018-09-23T01:17:26.867Z,8.10
2018-09-23T01:19:54.341Z,8.00
2018-09-23T01:22:21.745Z,7.90
2018-09-23T01:24:49.185Z,7.90
2018-09-23T01:27:16.625Z,7.70
2018-09-23T01:29:44.034Z,7.60
2018-09-23T01:32:11.502Z,7.50
2018-09-23T01:34:38.927Z,7.30
2018-09-23T01:37:06.346Z,7.20
2018-09-23T01:39:33.837Z,7.10
2018-09-23T01:42:01.296Z,7.00
2018-09-23T01:44:28.696Z,6.90
2018-09-23T01:46:56.161Z,7.10
2018-09-23T01:49:23.598Z,7.20
2018-09-23T01:51:51.015Z,7.30
2018-09-23T01:54:18.438Z,7.60
2018-09-23T01:56:45.861Z,7.60
2018-09-23T01:59:13.296Z,7.50
2018-09-23T02:01:40.685Z,7.60
2018-09-23T02:04:08.153Z,7.70
2018-09-23T02:06:35.589Z,7.80
2018-09-23T02:09:03.856Z,7.90
2018-09-23T02:11:31.324Z,8.00
2018-09-23T02:13:58.740Z,8.00
2018-09-23T02:16:26.138Z,8.10
2018-09-23T02:18:53.574Z,8.20
2018-09-23T02:21:20.974Z,8.20
2018-09-23T02:23:48.445Z,8.30
2018-09-23T02:26:15.836Z,8.30
2018-09-23T02:28:43.239Z,8.20
2018-09-23T02:31:10.678Z,8.20
2018-09-23T02:33:38.100Z,8.20
2018-09-23T02:36:05.561Z,8.20
2018-09-23T02:38:32.954Z,8.20
2018-09-23T02:41:00.369Z,8.30
2018-09-23T02:43:27.808Z,8.30
2018-09-23T02:45:55.345Z,8.20
2018-09-23T02:48:22.793Z,8.20
2018-09-23T02:50:50.219Z,8.00
2018-09-23T02:53:17.655Z,8.10
2018-09-23T02:55:45.119Z,8.10
2018-09-23T02:58:12.544Z,8.10
2018-09-23T03:00:39.942Z,8.10
2018-09-23T03:03:07.393Z,8.20
2018-09-23T03:05:34.814Z,8.20
2018-09-23T03:08:02.229Z,8.30
2018-09-23T03:10:29.685Z,8.40
2018-09-23T03:12:57.245Z,8.40
2018-09-23T03:15:24.628Z,8.30
2018-09-23T03:17:52.179Z,8.20
2018-09-23T03:20:19.524Z,8.20
2018-09-23T03:22:46.945Z,8.10
2018-09-23T03:25:14.401Z,8.10
2018-09-23T03:27:41.817Z,8.00
2018-09-23T03:30:09.293Z,7.90
2018-09-23T03:32:36.737Z,8.00
2018-09-23T03:35:04.167Z,8.10
2018-09-23T03:37:31.648Z,8.10
2018-09-23T03:39:59.049Z,8.10
2018-09-23T03:42:26.499Z,8.20
2018-09-23T03:44:53.929Z,8.10
2018-09-23T03:47:21.377Z,8.10
2018-09-23T03:49:48.837Z,8.10
2018-09-23T03:52:16.264Z,8.10
2018-09-23T03:54:43.687Z,8.10
2018-09-23T03:57:11.117Z,8.00
2018-09-23T03:59:38.541Z,7.90
2018-09-23T04:02:05.958Z,8.00
2018-09-23T04:04:33.346Z,8.00
2018-09-23T04:07:00.765Z,8.00
2018-09-23T04:09:28.277Z,8.00
2018-09-23T04:11:55.705Z,8.00
2018-09-23T04:14:23.086Z,8.10
2018-09-23T04:16:50.536Z,8.20
2018-09-23T04:19:17.965Z,8.10
2018-09-23T04:21:45.413Z,8.10
2018-09-23T04:24:12.810Z,8.10
2018-09-23T04:26:40.194Z,8.10
2018-09-23T04:29:07.816Z,8.20
2018-09-23T04:31:35.205Z,8.20
2018-09-23T04:34:02.601Z,8.20
2018-09-23T04:36:29.997Z,8.30
2018-09-23T04:38:57.395Z,8.30
2018-09-23T04:41:24.840Z,8.30
2018-09-23T04:43:52.254Z,8.30
2018-09-23T04:46:19.650Z,8.30
2018-09-23T04:48:47.117Z,8.30
2018-09-23T04:51:14.541Z,8.40
2018-09-23T04:53:41.944Z,8.30
2018-09-23T04:56:09.349Z,8.40
2018-09-23T04:58:36.772Z,8.40
2018-09-23T05:01:04.188Z,8.30
2018-09-23T05:03:31.587Z,8.30
2018-09-23T05:05:59.026Z,8.20
2018-09-23T05:08:26.487Z,8.10
2018-09-23T05:10:53.866Z,8.10
2018-09-23T05:13:21.301Z,8.00
2018-09-23T05:15:49.044Z,8.00
2018-09-23T05:18:16.462Z,8.00
2018-09-23T05:20:43.872Z,8.00
2018-09-23T05:23:11.305Z,8.00
2018-09-23T05:25:38.725Z,7.90
2018-09-23T05:28:06.141Z,7.90
2018-09-23T05:30:33.611Z,8.10
2018-09-23T05:33:01.004Z,8.30
2018-09-23T05:35:28.531Z,8.40
2018-09-23T05:37:55.924Z,8.40
2018-09-23T05:40:23.345Z,8.40
2018-09-23T05:42:50.840Z,8.40
2018-09-23T05:45:18.239Z,8.40
2018-09-23T05:47:45.647Z,8.30
2018-09-23T05:50:13.123Z,8.30
2018-09-23T05:52:40.516Z,8.40
2018-09-23T05:55:07.920Z,8.30
2018-09-23T05:57:35.373Z,8.30
2018-09-23T06:00:02.873Z,8.30
2018-09-23T06:02:30.319Z,8.40
2018-09-23T06:04:57.768Z,8.50
2018-09-23T06:07:25.235Z,8.40
2018-09-23T06:09:52.621Z,8.40
2018-09-23T06:12:20.035Z,8.50
2018-09-23T06:14:47.469Z,8.50
2018-09-23T06:17:14.863Z,8.50
2018-09-23T06:19:42.295Z,8.60
2018-09-23T06:22:09.724Z,8.80
2018-09-23T06:24:37.102Z,8.80
2018-09-23T06:27:04.553Z,8.90
2018-09-23T06:29:31.965Z,8.70
2018-09-23T06:31:59.413Z,8.80
2018-09-23T06:34:26.829Z,8.70
2018-09-23T06:36:54.298Z,8.70
2018-09-23T06:39:21.686Z,8.70
2018-09-23T06:41:49.106Z,8.70
2018-09-23T06:44:16.498Z,8.70
2018-09-23T06:46:43.953Z,8.70
2018-09-23T06:49:11.334Z,8.70
2018-09-23T06:51:38.729Z,8.90
2018-09-23T06:54:06.284Z,8.90
2018-09-23T06:56:33.744Z,9.10
2018-09-23T06:59:01.208Z,9.40
2018-09-23T07:01:28.584Z,9.50
2018-09-23T07:03:56.006Z,9.60
2018-09-23T07:06:23.486Z,9.50
2018-09-23T07:08:50.890Z,9.40
2018-09-23T07:11:18.283Z,9.30
2018-09-23T07:13:45.690Z,9.30
2018-09-23T07:16:13.088Z,9.30
2018-09-23T07:18:40.574Z,9.30
2018-09-23T07:21:08.041Z,9.40
2018-09-23T07:23:35.452Z,9.60
2018-09-23T07:26:02.906Z,9.90
2018-09-23T07:28:30.364Z,10.10
2018-09-23T07:30:57.814Z,10.20
2018-09-23T07:33:25.285Z,10.10
2018-09-23T07:35:52.706Z,10.20
2018-09-23T07:38:20.140Z,10.20
2018-09-23T07:40:47.597Z,10.20
2018-09-23T07:43:15.021Z,10.40
2018-09-23T07:45:42.422Z,10.60
2018-09-23T07:48:10.037Z,10.60
2018-09-23T07:50:37.546Z,10.60
2018-09-23T07:53:05.258Z,10.60
2018-09-23T07:55:32.702Z,10.80
2018-09-23T07:58:00.177Z,10.80
2018-09-23T08:00:27.573Z,10.80
2018-09-23T08:02:54.986Z,10.90
2018-09-23T08:05:22.376Z,10.90
2018-09-23T08:07:49.816Z,10.90
2018-09-23T08:10:17.266Z,10.80
2018-09-23T08:12:44.899Z,10.70
2018-09-23T08:15:12.232Z,10.60
2018-09-23T08:17:39.632Z,10.50
2018-09-23T08:20:07.189Z,10.30
2018-09-23T08:22:34.549Z,10.00
2018-09-23T08:25:02.029Z,10.00
2018-09-23T08:27:29.422Z,10.00
2018-09-23T08:29:56.829Z,10.00
2018-09-23T08:32:24.276Z,10.10
2018-09-23T08:34:51.887Z,10.20
2018-09-23T08:37:19.299Z,10.30
2018-09-23T08:39:46.772Z,10.50
2018-09-23T08:42:14.194Z,10.70
2018-09-23T08:44:41.754Z,10.70
2018-09-23T08:47:09.212Z,10.70
2018-09-23T08:49:36.601Z,10.80
2018-09-23T08:52:04.052Z,10.80
2018-09-23T08:54:31.450Z,10.70
2018-09-23T08:56:58.828Z,10.70
2018-09-23T08:59:26.306Z,10.90
2018-09-23T09:01:53.701Z,11.10
2018-09-23T09:04:21.102Z,11.10
2018-09-23T09:06:48.670Z,11.10
2018-09-23T09:09:16.115Z,10.90
2018-09-23T09:11:43.561Z,10.80
2018-09-23T09:14:10.955Z,10.80
2018-09-23T09:16:38.410Z,10.80
2018-09-23T09:19:05.803Z,10.80
2018-09-23T09:21:33.178Z,10.80
2018-09-23T09:24:00.599Z,10.80
2018-09-23T09:26:28.061Z,10.90
2018-09-23T09:28:55.436Z,10.90
2018-09-23T09:31:22.832Z,11.20
2018-09-23T09:33:50.216Z,11.20
2018-09-23T09:36:17.656Z,11.00
2018-09-23T09:38:45.129Z,10.90
2018-09-23T09:41:12.525Z,10.80
2018-09-23T09:43:39.993Z,11.10
2018-09-23T09:46:07.400Z,11.20
2018-09-23T09:48:34.886Z,11.20
2018-09-23T09:51:02.289Z,11.10
2018-09-23T09:53:29.796Z,11.10
2018-09-23T09:55:57.218Z,11.00
2018-09-23T09:58:24.609Z,11.00
2018-09-23T10:00:52.069Z,10.90
2018-09-23T10:03:19.447Z,10.90
2018-09-23T10:05:46.826Z,10.90
2018-09-23T10:08:14.285Z,11.00
2018-09-23T10:10:41.691Z,11.00
2018-09-23T10:13:09.121Z,11.10
2018-09-23T10:15:36.501Z,11.20
2018-09-23T10:18:03.966Z,11.40
2018-09-23T10:20:31.353Z,11.60
2018-09-23T10:22:58.799Z,11.70
2018-09-23T10:25:26.234Z,12.00
2018-09-23T10:27:53.612Z,12.20
2018-09-23T10:30:21.160Z,12.30
2018-09-23T10:32:48.563Z,12.20
2018-09-23T10:35:15.966Z,12.30
2018-09-23T10:37:43.404Z,12.20
2018-09-23T10:40:10.810Z,12.20
2018-09-23T10:42:38.242Z,12.30
2018-09-23T10:45:05.679Z,12.10
2018-09-23T10:47:33.148Z,11.90
2018-09-23T10:50:00.561Z,11.90
2018-09-23T10:52:27.978Z,11.90
2018-09-23T10:54:55.429Z,12.00
2018-09-23T10:57:22.882Z,12.20
2018-09-23T10:59:50.305Z,12.20
2018-09-23T11:02:17.714Z,12.30
2018-09-23T11:04:45.122Z,12.30
2018-09-23T11:07:12.597Z,12.40
2018-09-23T11:09:40.003Z,12.50
2018-09-23T11:12:07.378Z,12.50
2018-09-23T11:14:34.818Z,12.40
2018-09-23T11:17:02.216Z,12.50
2018-09-23T11:19:29.660Z,12.50
2018-09-23T11:21:57.044Z,12.40
2018-09-23T11:24:24.445Z,12.40
2018-09-23T11:26:51.898Z,12.00
2018-09-23T11:29:19.297Z,11.60
2018-09-23T11:31:46.693Z,11.40
2018-09-23T11:34:14.172Z,11.30
2018-09-23T11:36:41.594Z,11.30
2018-09-23T11:39:10.399Z,11.40
2018-09-23T11:41:37.841Z,11.50
2018-09-23T11:44:05.429Z,11.60
2018-09-23T11:46:32.823Z,11.80
2018-09-23T11:49:00.274Z,11.90
2018-09-23T11:51:27.670Z,12.10
2018-09-23T11:53:55.060Z,12.40
2018-09-23T11:56:22.456Z,12.60
2018-09-23T11:58:49.957Z,12.80
2018-09-23T12:01:17.345Z,12.80
2018-09-23T12:03:44.751Z,12.90
2018-09-23T12:06:12.184Z,12.90
2018-09-23T12:08:39.606Z,12.90
2018-09-23T12:11:06.994Z,12.80
2018-09-23T12:13:34.442Z,12.40
2018-09-23T12:16:01.850Z,12.30
2018-09-23T12:18:29.233Z,12.20
2018-09-23T12:20:56.681Z,12.30
2018-09-23T12:23:24.077Z,12.40
2018-09-23T12:25:51.503Z,12.50
2018-09-23T12:28:18.984Z,12.70
2018-09-23T12:30:46.437Z,12.90
2018-09-23T12:33:13.871Z,13.20
2018-09-23T12:35:41.285Z,13.40
2018-09-23T12:38:08.698Z,13.60
2018-09-23T12:40:36.114Z,13.70
2018-09-23T12:43:03.553Z,13.90
2018-09-23T12:45:30.947Z,14.10
2018-09-23T12:47:58.349Z,13.90
2018-09-23T12:50:25.744Z,13.70
2018-09-23T12:52:53.133Z,13.40
2018-09-23T12:55:20.550Z,12.90
2018-09-23T12:57:47.941Z,12.60
2018-09-23T13:00:15.396Z,12.20
2018-09-23T13:02:42.787Z,12.10
2018-09-23T13:05:10.185Z,12.20
2018-09-23T13:07:37.644Z,12.30
2018-09-23T13:10:05.119Z,12.30
2018-09-23T13:12:32.531Z,12.20
2018-09-23T13:14:59.949Z,12.10
2018-09-23T13:17:27.341Z,12.00
2018-09-23T13:19:54.722Z,11.80
2018-09-23T13:22:22.167Z,11.70
2018-09-23T13:24:49.641Z,11.30
2018-09-23T13:27:17.038Z,11.20
2018-09-23T13:29:44.446Z,10.90
2018-09-23T13:32:11.898Z,10.80
2018-09-23T13:34:39.338Z,10.70
2018-09-23T13:37:06.708Z,10.50
2018-09-23T13:39:34.134Z,10.40
2018-09-23T13:42:01.576Z,10.40
2018-09-23T13:44:29.009Z,10.50
2018-09-23T13:46:56.452Z,10.60
2018-09-23T13:49:23.881Z,10.80
2018-09-23T13:51:51.289Z,11.00
2018-09-23T13:54:18.757Z,11.20
2018-09-23T13:56:46.149Z,11.30
2018-09-23T13:59:13.549Z,11.50
2018-09-23T14:01:40.988Z,11.50
2018-09-23T14:04:08.368Z,11.70
2018-09-23T14:06:35.803Z,11.80
2018-09-23T14:09:04.493Z,11.60
2018-09-23T14:11:31.884Z,11.40
2018-09-23T14:13:59.290Z,11.30
2018-09-23T14:16:26.704Z,11.40
2018-09-23T14:18:54.145Z,11.40
2018-09-23T14:21:21.565Z,11.50
2018-09-23T14:23:49.009Z,11.70
2018-09-23T14:26:16.393Z,11.80
2018-09-23T14:28:43.854Z,11.80
2018-09-23T14:31:11.239Z,11.70
2018-09-23T14:33:38.616Z,11.70
2018-09-23T14:36:06.036Z,11.80
2018-09-23T14:38:33.421Z,11.90
2018-09-23T14:41:00.858Z,12.20
2018-09-23T14:43:28.269Z,12.40
2018-09-23T14:45:55.706Z,12.70
2018-09-23T14:48:23.085Z,12.60
2018-09-23T14:50:50.452Z,12.40
2018-09-23T14:53:17.894Z,12.20
2018-09-23T14:55:45.345Z,12.10
2018-09-23T14:58:12.779Z,12.00
2018-09-23T15:00:40.206Z,12.00
2018-09-23T15:03:07.637Z,12.00
2018-09-23T15:05:35.030Z,11.90
2018-09-23T15:08:02.455Z,11.90
2018-09-23T15:10:29.912Z,11.70
2018-09-23T15:12:57.365Z,11.70
2018-09-23T15:15:24.844Z,11.60
2018-09-23T15:17:52.404Z,11.60
2018-09-23T15:20:19.789Z,11.40
2018-09-23T15:22:47.164Z,11.50
2018-09-23T15:25:14.678Z,11.50
2018-09-23T15:27:42.080Z,11.40
2018-09-23T15:30:09.501Z,11.40
2018-09-23T15:32:36.949Z,11.40
2018-09-23T15:35:04.396Z,11.50
2018-09-23T15:37:31.781Z,11.50
2018-09-23T15:39:59.264Z,11.60
2018-09-23T15:42:26.665Z,11.50
2018-09-23T15:44:54.096Z,11.40
2018-09-23T15:47:21.525Z,11.40
2018-09-23T15:49:48.969Z,11.40
2018-09-23T15:52:16.535Z,11.40
2018-09-23T15:54:43.887Z,11.40
2018-09-23T15:57:11.282Z,11.40
2018-09-23T15:59:38.713Z,11.30
2018-09-23T16:02:06.391Z,11.30
2018-09-23T16:04:33.785Z,11.20
2018-09-23T16:07:01.199Z,11.00
2018-09-23T16:09:28.636Z,11.10
2018-09-23T16:11:56.093Z,11.10
2018-09-23T16:14:23.481Z,10.90
2018-09-23T16:16:50.892Z,10.90
2018-09-23T16:19:18.398Z,10.90
2018-09-23T16:21:45.785Z,10.90
2018-09-23T16:24:13.339Z,10.90
2018-09-23T16:26:40.813Z,10.70
2018-09-23T16:29:08.298Z,10.60
2018-09-23T16:31:35.869Z,10.70
2018-09-23T16:34:03.314Z,10.50
2018-09-23T16:36:30.927Z,10.40
2018-09-23T16:38:58.449Z,10.20
2018-09-23T16:41:25.861Z,10.20
2018-09-23T16:43:53.301Z,10.10
2018-09-23T16:46:20.816Z,9.90
2018-09-23T16:48:48.313Z,9.60
2018-09-23T16:51:15.917Z,9.40
2018-09-23T16:53:43.766Z,9.30
2018-09-23T16:56:11.226Z,9.00
2018-09-23T16:58:38.684Z,8.90
2018-09-23T17:01:06.185Z,8.70
2018-09-23T17:03:33.685Z,8.60
2018-09-23T17:06:01.167Z,8.40
2018-09-23T17:08:28.633Z,8.20
2018-09-23T17:10:56.120Z,8.00
2018-09-23T17:13:23.633Z,8.00
2018-09-23T17:15:51.149Z,7.90
2018-09-23T17:18:18.818Z,7.80
2018-09-23T17:20:46.314Z,7.80
2018-09-23T17:23:13.734Z,7.70
2018-09-23T17:25:41.260Z,7.60
2018-09-23T17:28:08.734Z,7.30
2018-09-23T17:30:36.064Z,7.20
2018-09-23T17:33:03.631Z,7.00
2018-09-23T17:35:31.040Z,6.90
2018-09-23T17:37:58.513Z,6.90
2018-09-23T17:40:25.955Z,6.80
2018-09-23T17:42:53.396Z,6.70
2018-09-23T17:45:20.802Z,6.60
2018-09-23T17:47:48.206Z,6.60
2018-09-23T17:50:15.642Z,6.50
2018-09-23T17:52:43.057Z,6.40
2018-09-23T17:55:10.500Z,6.30
2018-09-23T17:57:37.922Z,6.30
2018-09-23T18:00:05.547Z,6.40
2018-09-23T18:02:32.977Z,6.40
2018-09-23T18:05:00.349Z,6.30
2018-09-23T18:07:27.954Z,6.30
2018-09-23T18:09:55.376Z,6.20
2018-09-23T18:12:22.762Z,6.10
2018-09-23T18:14:50.231Z,6.10
2018-09-23T18:17:17.670Z,6.10
2018-09-23T18:19:45.236Z,5.90
2018-09-23T18:22:12.621Z,5.80
2018-09-23T18:24:40.067Z,5.70
2018-09-23T18:27:07.442Z,5.60
2018-09-23T18:29:35.777Z,5.60
2018-09-23T18:32:03.181Z,5.50
2018-09-23T18:34:30.579Z,5.50
2018-09-23T18:36:57.997Z,5.40
2018-09-23T18:39:25.401Z,5.30
2018-09-23T18:41:52.862Z,5.20
2018-09-23T18:44:20.279Z,5.10
2018-09-23T18:46:48.066Z,5.10
2018-09-23T18:49:15.556Z,5.10
2018-09-23T18:51:42.952Z,5.10
2018-09-23T18:54:16.146Z,5.00
2018-09-23T18:56:43.569Z,5.00
2018-09-23T18:59:10.973Z,5.00
2018-09-23T19:01:38.381Z,5.00
2018-09-23T19:04:05.916Z,5.00
2018-09-23T19:06:33.344Z,5.00
2018-09-23T19:09:00.723Z,5.00
2018-09-23T19:11:28.136Z,5.00
2018-09-23T19:13:55.579Z,5.00
2018-09-23T19:16:28.531Z,4.90
2018-09-23T19:18:56.845Z,4.90
2018-09-23T19:21:24.847Z,4.80
2018-09-23T19:23:52.274Z,4.70
2018-09-23T19:26:19.820Z,4.60
2018-09-23T19:28:47.198Z,4.40
2018-09-23T19:31:14.584Z,4.30
2018-09-23T19:33:42.021Z,4.10
2018-09-23T19:36:09.422Z,4.00
2018-09-23T19:38:36.809Z,3.90
2018-09-23T19:41:04.374Z,3.70
2018-09-23T19:43:31.785Z,3.60
2018-09-23T19:45:59.224Z,3.40
2018-09-23T19:48:26.675Z,3.40
2018-09-23T19:50:54.106Z,3.40
2018-09-23T19:53:21.517Z,3.30
2018-09-23T19:55:49.026Z,3.40
2018-09-23T19:58:16.450Z,3.60
2018-09-23T20:00:43.868Z,3.50
2018-09-23T20:03:11.284Z,3.40
2018-09-23T20:05:38.733Z,3.30
2018-09-23T20:08:06.173Z,3.30
2018-09-23T20:10:33.693Z,3.20
2018-09-23T20:13:01.318Z,3.00
2018-09-23T20:15:28.762Z,2.90
2018-09-23T20:17:56.170Z,2.80
2018-09-23T20:20:23.584Z,2.70
2018-09-23T20:22:50.982Z,2.70
2018-09-23T20:25:18.401Z,2.60
2018-09-23T20:27:45.912Z,2.60
2018-09-23T20:30:13.301Z,2.60
2018-09-23T20:32:40.697Z,2.60
2018-09-23T20:35:08.189Z,2.50
2018-09-23T20:37:36.666Z,2.50
2018-09-23T20:40:04.239Z,2.50
2018-09-23T20:42:31.667Z,2.40
2018-09-23T20:44:59.072Z,2.40
2018-09-23T20:47:26.509Z,2.30
2018-09-23T20:49:54.016Z,2.30
2018-09-23T20:52:21.562Z,2.30
2018-09-23T20:54:49.114Z,2.20
2018-09-23T20:57:16.563Z,2.20
2018-09-23T20:59:44.162Z,2.10
2018-09-23T21:02:11.740Z,2.20
2018-09-23T21:04:39.289Z,2.20
2018-09-23T21:07:06.945Z,2.10
2018-09-23T21:09:34.629Z,2.10
2018-09-23T21:12:02.148Z,2.00
2018-09-23T21:14:29.965Z,2.00
2018-09-23T21:16:57.785Z,2.00
2018-09-23T21:19:25.630Z,2.00
2018-09-23T21:21:53.517Z,1.90
2018-09-23T21:24:21.253Z,1.90
2018-09-23T21:26:48.913Z,1.90
2018-09-23T21:29:16.771Z,1.90
2018-09-23T21:31:44.812Z,1.80
2018-09-23T21:34:12.745Z,1.80
2018-09-23T21:36:40.646Z,1.70
2018-09-23T21:39:09.687Z,1.70
2018-09-23T21:41:38.379Z,1.60
2018-09-23T21:44:07.004Z,1.50
2018-09-23T21:46:35.551Z,1.50
2018-09-23T21:49:04.752Z,1.50
2018-09-23T21:51:33.033Z,1.50
2018-09-23T21:54:01.941Z,1.50
2018-09-23T21:56:30.718Z,1.40
2018-09-23T21:58:59.435Z,1.40
2018-09-23T22:01:27.893Z,1.40
2018-09-23T22:03:56.481Z,1.40
2018-09-23T22:06:24.703Z,1.30
2018-09-23T22:08:53.790Z,1.30
2018-09-23T22:11:22.549Z,1.30
2018-09-23T22:13:54.643Z,1.20
2018-09-23T22:16:23.059Z,1.20
2018-09-23T22:18:53.633Z,1.10
2018-09-23T22:21:22.322Z,1.00
2018-09-23T22:23:51.160Z,1.00
2018-09-23T22:26:19.772Z,0.80
2018-09-23T22:28:48.096Z,0.70
2018-09-23T22:31:20.560Z,0.60
2018-09-23T22:33:49.762Z,0.60
2018-09-23T22:36:18.041Z,0.50
2018-09-23T22:38:57.282Z,0.40
2018-09-23T22:41:25.453Z,0.30
2018-09-23T22:43:53.932Z,0.40
2018-09-23T22:46:22.317Z,0.40
2018-09-23T22:48:50.581Z,0.40
2018-09-23T22:51:24.686Z,0.40
2018-09-23T22:53:53.095Z,0.30
2018-09-23T22:56:21.298Z,0.30
2018-09-23T22:58:50.473Z,0.40
2018-09-23T23:01:18.946Z,0.30
2018-09-23T23:03:47.339Z,0.40
2018-09-23T23:06:15.600Z,0.30
2018-09-23T23:08:45.787Z,0.30
2018-09-23T23:11:13.716Z,0.30
2018-09-23T23:13:43.347Z,0.30
2018-09-23T23:16:12.731Z,0.30
2018-09-23T23:18:40.911Z,0.30
2018-09-23T23:21:09.331Z,0.20
2018-09-23T23:23:37.471Z,0.10
2018-09-23T23:26:06.100Z,0.00
2018-09-23T23:28:34.262Z,0.00
2018-09-23T23:31:03.437Z,0.00
2018-09-23T23:33:32.051Z,-0.10
2018-09-23T23:36:00.613Z,-0.20
2018-09-23T23:38:28.875Z,-0.10
2018-09-23T23:40:59.811Z,-0.10
2018-09-23T23:43:29.102Z,0.00
2018-09-23T23:45:57.416Z,0.00
2018-09-23T23:48:27.235Z,0.00
2018-09-23T23:50:55.853Z,0.00
2018-09-23T23:53:24.535Z,0.00
2018-09-23T23:55:54.017Z,-0.10
2018-09-23T23:58:28.960Z,-0.10
